createdAt,value
2022-08-24T00:02:53.008Z,21.36
2022-08-24T00:04:47.102Z,21.35
2022-08-24T00:09:57.134Z,21.25
2022-08-24T00:11:26.114Z,21.24
2022-08-24T00:13:16.814Z,21.24
2022-08-24T00:17:08.656Z,21.18
2022-08-24T00:22:23.743Z,21.06
2022-08-24T00:25:19.485Z,21.05
2022-08-24T00:28:25.212Z,21.03
2022-08-24T00:30:11.819Z,21.00
2022-08-24T00:35:54.489Z,20.96
2022-08-24T00:46:26.771Z,20.85
2022-08-24T00:52:05.209Z,20.75
2022-08-24T00:58:03.746Z,20.69
2022-08-24T01:00:02.595Z,20.67
2022-08-24T01:01:37.050Z,20.66
2022-08-24T01:03:25.552Z,20.65
2022-08-24T01:08:15.362Z,20.63
2022-08-24T01:11:14.153Z,20.62
2022-08-24T01:15:07.818Z,20.58
2022-08-24T01:20:02.476Z,20.51
2022-08-24T01:21:05.293Z,20.48
2022-08-24T01:22:04.027Z,20.51
2022-08-24T01:25:50.629Z,20.43
2022-08-24T01:35:52.240Z,20.34
2022-08-24T01:39:46.302Z,20.26
2022-08-24T01:42:23.224Z,20.24
2022-08-24T01:49:17.321Z,20.18
2022-08-24T01:53:24.901Z,20.14
2022-08-24T02:01:49.661Z,20.07
2022-08-24T02:04:22.165Z,20.04
2022-08-24T02:06:12.519Z,20.02
2022-08-24T02:08:02.705Z,19.99
2022-08-24T02:11:31.673Z,19.94
2022-08-24T02:15:36.549Z,19.89
2022-08-24T02:17:09.605Z,19.89
2022-08-24T02:19:06.285Z,19.86
2022-08-24T02:23:12.823Z,19.82
2022-08-24T02:27:53.185Z,19.81
2022-08-24T02:30:12.206Z,19.70
2022-08-24T02:32:39.377Z,19.69
2022-08-24T02:34:22.796Z,19.67
2022-08-24T02:38:54.532Z,19.63
2022-08-24T02:42:23.876Z,19.62
2022-08-24T02:50:06.460Z,19.59
2022-08-24T02:55:05.988Z,19.59
2022-08-24T03:01:43.004Z,19.55
2022-08-24T03:03:10.354Z,19.54
2022-08-24T03:08:46.445Z,19.45
2022-08-24T03:12:02.672Z,19.47
2022-08-24T03:19:12.173Z,19.40
2022-08-24T03:22:20.515Z,19.34
2022-08-24T03:25:51.653Z,19.29
2022-08-24T03:27:32.882Z,19.26
2022-08-24T03:32:06.855Z,19.19
2022-08-24T03:35:11.944Z,19.16
2022-08-24T03:40:32.579Z,19.12
2022-08-24T03:44:52.761Z,19.09
2022-08-24T03:46:37.331Z,19.08
2022-08-24T03:48:43.549Z,19.07
2022-08-24T03:50:36.992Z,19.04
2022-08-24T03:52:19.619Z,19.04
2022-08-24T03:54:03.489Z,19.00
2022-08-24T03:56:21.333Z,18.99
2022-08-24T04:00:38.985Z,18.96
2022-08-24T04:07:21.091Z,18.96
2022-08-24T04:10:50.614Z,18.98
2022-08-24T04:12:44.854Z,18.96
2022-08-24T04:18:41.229Z,18.95
2022-08-24T04:24:04.888Z,18.93
2022-08-24T04:33:20.618Z,18.88
2022-08-24T04:39:56.997Z,18.88
2022-08-24T04:42:15.357Z,18.88
2022-08-24T04:44:32.728Z,18.84
2022-08-24T04:46:21.834Z,18.83
2022-08-24T04:47:51.517Z,18.83
2022-08-24T04:49:42.217Z,18.80
2022-08-24T04:51:14.066Z,18.80
2022-08-24T04:53:29.967Z,18.78
2022-08-24T04:55:49.084Z,18.77
2022-08-24T04:57:39.618Z,18.75
2022-08-24T04:59:29.438Z,18.75
2022-08-24T05:01:17.686Z,18.75
2022-08-24T05:06:04.907Z,18.75
2022-08-24T05:07:35.810Z,18.75
2022-08-24T05:18:19.247Z,18.78
2022-08-24T05:24:44.400Z,18.83
2022-08-24T05:29:26.588Z,18.88
2022-08-24T05:33:11.708Z,18.92
2022-08-24T05:36:01.193Z,18.95
2022-08-24T05:38:45.827Z,19.00
2022-08-24T05:41:17.237Z,19.07
2022-08-24T05:43:07.718Z,19.09
2022-08-24T05:44:57.635Z,19.12
2022-08-24T05:47:25.754Z,19.18
2022-08-24T05:55:29.031Z,19.34
2022-08-24T05:57:28.916Z,19.39
2022-08-24T06:01:25.441Z,19.47
2022-08-24T06:06:36.117Z,19.58
2022-08-24T06:08:41.663Z,19.66
2022-08-24T06:10:33.231Z,19.69
2022-08-24T06:12:07.436Z,19.76
2022-08-24T06:14:29.765Z,19.79
2022-08-24T06:17:45.612Z,19.86
2022-08-24T06:19:45.328Z,19.89
2022-08-24T06:25:32.211Z,20.02
2022-08-24T06:28:06.457Z,20.09
2022-08-24T06:37:05.005Z,20.31
2022-08-24T06:41:20.773Z,20.43
2022-08-24T06:45:48.826Z,20.59
2022-08-24T06:57:20.544Z,20.96
2022-08-24T06:58:49.567Z,21.05
2022-08-24T07:09:29.255Z,21.51
2022-08-24T07:10:57.886Z,21.54
2022-08-24T07:12:30.443Z,21.66
2022-08-24T07:14:57.036Z,21.76
2022-08-24T07:18:07.361Z,21.91
2022-08-24T07:22:23.275Z,22.06
2022-08-24T07:23:53.145Z,22.17
2022-08-24T07:27:22.162Z,22.32
2022-08-24T07:35:02.725Z,22.63
2022-08-24T07:37:40.714Z,22.76
2022-08-24T07:39:00.749Z,22.84
2022-08-24T07:41:33.724Z,23.00
2022-08-24T07:46:36.227Z,23.43
2022-08-24T07:48:05.414Z,23.50
2022-08-24T07:49:39.563Z,23.55
2022-08-24T07:51:04.067Z,23.58
2022-08-24T07:53:43.768Z,23.68
2022-08-24T07:56:04.487Z,23.86
2022-08-24T07:58:59.916Z,24.03
2022-08-24T08:03:24.287Z,24.20
2022-08-24T08:05:22.093Z,24.28
2022-08-24T08:06:50.999Z,24.30
2022-08-24T08:08:20.214Z,24.36
2022-08-24T08:10:20.196Z,24.45
2022-08-24T08:14:42.869Z,24.61
2022-08-24T08:16:43.583Z,24.69
2022-08-24T08:19:40.319Z,24.81
2022-08-24T08:22:58.910Z,25.01
2022-08-24T08:24:27.854Z,25.10
2022-08-24T08:25:56.735Z,25.17
2022-08-24T08:27:26.623Z,25.22
2022-08-24T08:28:56.520Z,25.31
2022-08-24T08:31:43.233Z,25.38
2022-08-24T08:37:32.756Z,25.68
2022-08-24T08:43:57.045Z,25.90
2022-08-24T08:45:55.801Z,25.95
2022-08-24T08:48:06.912Z,26.02
2022-08-24T08:49:35.797Z,26.07
2022-08-24T08:51:34.586Z,26.16
2022-08-24T08:53:03.779Z,26.23
2022-08-24T08:57:30.846Z,26.41
2022-08-24T08:58:59.668Z,26.45
2022-08-24T09:01:17.345Z,26.52
2022-08-24T09:03:46.059Z,26.59
2022-08-24T09:05:14.952Z,26.66
2022-08-24T09:10:06.505Z,26.75
2022-08-24T09:12:04.450Z,26.80
2022-08-24T09:15:01.109Z,26.83
2022-08-24T09:18:55.813Z,26.92
2022-08-24T09:23:20.487Z,27.08
2022-08-24T09:24:50.395Z,27.10
2022-08-24T09:27:50.187Z,27.15
2022-08-24T09:29:18.556Z,27.20
2022-08-24T09:32:16.358Z,27.27
2022-08-24T09:34:32.463Z,27.33
2022-08-24T09:36:01.476Z,27.37
2022-08-24T09:38:28.334Z,27.42
2022-08-24T09:39:57.282Z,27.48
2022-08-24T09:42:53.912Z,27.58
2022-08-24T09:45:41.899Z,27.68
2022-08-24T09:50:20.230Z,27.82
2022-08-24T09:53:45.038Z,27.90
2022-08-24T09:56:02.680Z,27.96
2022-08-24T09:58:29.596Z,28.05
2022-08-24T10:01:55.443Z,28.12
2022-08-24T10:05:03.391Z,28.25
2022-08-24T10:07:53.158Z,28.33
2022-08-24T10:09:10.456Z,28.41
2022-08-24T10:11:39.193Z,28.56
2022-08-24T10:14:16.915Z,28.70
2022-08-24T10:16:06.634Z,28.81
2022-08-24T10:19:04.399Z,28.96
2022-08-24T10:20:33.219Z,29.07
2022-08-24T10:22:02.115Z,29.16
2022-08-24T10:23:32.485Z,29.23
2022-08-24T10:25:12.217Z,29.31
2022-08-24T10:29:18.041Z,29.51
2022-08-24T10:30:47.942Z,29.61
2022-08-24T10:36:30.397Z,29.90
2022-08-24T10:42:52.043Z,30.32
2022-08-24T10:44:50.400Z,30.46
2022-08-24T10:46:20.323Z,30.50
2022-08-24T10:49:36.176Z,30.63
2022-08-24T10:54:28.777Z,30.81
2022-08-24T10:59:57.321Z,31.00
2022-08-24T11:02:28.124Z,31.14
2022-08-24T11:05:24.038Z,31.33
2022-08-24T11:08:20.463Z,31.54
2022-08-24T11:10:17.918Z,31.66
2022-08-24T11:12:15.748Z,31.76
2022-08-24T11:13:48.286Z,31.85
2022-08-24T11:16:23.289Z,31.93
2022-08-24T11:17:54.370Z,31.99
2022-08-24T11:19:22.047Z,32.04
2022-08-24T11:21:12.676Z,32.09
2022-08-24T11:23:08.796Z,32.14
2022-08-24T11:24:41.149Z,32.21
2022-08-24T11:26:29.963Z,32.30
2022-08-24T11:29:05.356Z,32.40
2022-08-24T11:30:34.085Z,32.43
2022-08-24T11:33:20.657Z,32.46
2022-08-24T11:35:40.312Z,32.52
2022-08-24T11:37:10.294Z,32.60
2022-08-24T11:40:00.388Z,32.80
2022-08-24T11:41:31.783Z,32.80
2022-08-24T11:43:22.410Z,32.80
2022-08-24T11:45:20.305Z,32.85
2022-08-24T11:47:21.587Z,32.95
2022-08-24T11:49:41.313Z,32.92
2022-08-24T11:51:37.223Z,32.82
2022-08-24T12:00:35.042Z,32.83
2022-08-24T12:02:03.707Z,32.87
2022-08-24T12:05:45.544Z,33.05
2022-08-24T12:09:02.265Z,33.34
2022-08-24T12:12:00.791Z,33.15
2022-08-24T12:16:15.617Z,32.73
2022-08-24T12:17:44.599Z,32.67
2022-08-24T12:21:12.995Z,32.67
2022-08-24T12:24:22.683Z,32.53
2022-08-24T12:27:20.293Z,32.37
2022-08-24T12:28:54.295Z,32.27
2022-08-24T12:34:09.676Z,31.85
2022-08-24T12:39:34.796Z,31.69
2022-08-24T12:41:24.749Z,31.61
2022-08-24T12:44:48.246Z,31.52
2022-08-24T12:46:35.169Z,31.51
2022-08-24T12:50:08.982Z,31.42
2022-08-24T12:56:09.600Z,31.29
2022-08-24T12:58:40.646Z,31.43
2022-08-24T13:06:14.645Z,31.28
2022-08-24T13:09:15.293Z,31.24
2022-08-24T13:12:15.031Z,31.18
2022-08-24T13:17:42.214Z,31.28
2022-08-24T13:25:56.854Z,32.08
2022-08-24T13:28:25.725Z,32.31
2022-08-24T13:29:53.720Z,32.40
2022-08-24T13:32:11.781Z,32.51
2022-08-24T13:34:11.281Z,32.64
2022-08-24T13:36:37.670Z,32.77
2022-08-24T13:48:04.894Z,33.42
2022-08-24T13:50:33.608Z,33.55
2022-08-24T13:55:18.395Z,33.67
2022-08-24T13:59:15.114Z,33.74
2022-08-24T14:00:44.029Z,33.83
2022-08-24T14:03:13.007Z,33.87
2022-08-24T14:06:37.874Z,33.81
2022-08-24T14:11:22.532Z,33.87
2022-08-24T14:14:18.279Z,33.84
2022-08-24T14:16:37.120Z,33.77
2022-08-24T14:19:33.409Z,33.83
2022-08-24T14:22:21.453Z,33.87
2022-08-24T14:23:54.765Z,33.73
2022-08-24T14:25:44.579Z,33.59
2022-08-24T14:27:42.441Z,33.37
2022-08-24T14:29:11.044Z,33.45
2022-08-24T14:30:40.502Z,33.81
2022-08-24T14:32:12.720Z,33.84
2022-08-24T14:34:16.580Z,34.16
2022-08-24T14:36:01.121Z,34.03
2022-08-24T14:38:18.764Z,34.33
2022-08-24T14:41:14.531Z,34.39
2022-08-24T14:46:55.984Z,35.39
2022-08-24T14:50:13.624Z,36.04
2022-08-24T14:52:12.734Z,36.21
2022-08-24T15:01:20.408Z,35.29
2022-08-24T15:03:08.827Z,35.10
2022-08-24T15:08:48.655Z,34.74
2022-08-24T15:10:48.542Z,34.38
2022-08-24T15:12:16.112Z,34.16
2022-08-24T15:14:22.413Z,33.87
2022-08-24T15:16:21.555Z,33.61
2022-08-24T15:20:11.984Z,33.20
2022-08-24T15:24:08.015Z,33.04
2022-08-24T15:26:04.818Z,33.24
2022-08-24T15:28:35.899Z,33.32
2022-08-24T15:32:22.706Z,33.39
2022-08-24T15:34:43.096Z,33.32
2022-08-24T15:36:13.201Z,33.28
2022-08-24T15:38:44.139Z,33.24
2022-08-24T15:40:15.020Z,33.23
2022-08-24T15:42:15.219Z,33.22
2022-08-24T15:43:45.961Z,33.22
2022-08-24T15:45:14.118Z,33.15
2022-08-24T15:48:34.481Z,33.05
2022-08-24T15:51:37.503Z,33.14
2022-08-24T15:53:25.105Z,33.22
2022-08-24T15:57:32.419Z,33.28
2022-08-24T16:00:09.271Z,33.31
2022-08-24T16:04:21.171Z,33.24
2022-08-24T16:08:47.961Z,33.20
2022-08-24T16:10:53.824Z,33.11
2022-08-24T16:16:05.883Z,32.75
2022-08-24T16:18:53.953Z,32.59
2022-08-24T16:23:03.443Z,32.31
2022-08-24T16:25:24.502Z,32.19
2022-08-24T16:27:17.003Z,32.12
2022-08-24T16:29:36.232Z,32.00
2022-08-24T16:31:14.357Z,31.94
2022-08-24T16:32:45.551Z,31.87
2022-08-24T16:35:05.125Z,31.78
2022-08-24T16:38:23.921Z,31.70
2022-08-24T16:42:06.025Z,31.58
2022-08-24T16:45:23.791Z,31.52
2022-08-24T16:47:14.498Z,31.54
2022-08-24T16:49:31.837Z,31.59
2022-08-24T16:52:21.488Z,31.66
2022-08-24T16:54:19.780Z,31.69
2022-08-24T16:55:49.653Z,31.71
2022-08-24T16:58:23.600Z,31.78
2022-08-24T17:06:46.814Z,31.80
2022-08-24T17:12:44.241Z,31.64
2022-08-24T17:15:33.057Z,31.55
2022-08-24T17:17:02.983Z,31.54
2022-08-24T17:18:33.771Z,31.51
2022-08-24T17:21:53.167Z,31.46
2022-08-24T17:25:45.966Z,31.40
2022-08-24T17:28:49.251Z,31.34
2022-08-24T17:31:47.183Z,31.29
2022-08-24T17:33:47.099Z,31.24
2022-08-24T17:36:05.767Z,31.20
2022-08-24T17:37:35.631Z,31.14
2022-08-24T17:39:03.580Z,31.09
2022-08-24T17:44:33.256Z,30.99
2022-08-24T17:47:03.019Z,30.92
2022-08-24T17:49:49.608Z,30.87
2022-08-24T17:51:19.504Z,30.83
2022-08-24T17:52:50.483Z,30.78
2022-08-24T17:56:46.865Z,30.68
2022-08-24T17:58:43.081Z,30.63
2022-08-24T18:01:13.076Z,30.59
2022-08-24T18:11:33.269Z,30.28
2022-08-24T18:13:04.577Z,30.25
2022-08-24T18:16:42.972Z,30.18
2022-08-24T18:18:41.799Z,30.13
2022-08-24T18:20:10.725Z,30.10
2022-08-24T18:21:42.684Z,30.06
2022-08-24T18:24:02.375Z,30.02
2022-08-24T18:27:10.041Z,29.94
2022-08-24T18:29:03.063Z,29.90
2022-08-24T18:30:57.936Z,29.84
2022-08-24T18:35:43.850Z,29.69
2022-08-24T18:37:13.722Z,29.66
2022-08-24T18:40:23.390Z,29.57
2022-08-24T18:46:29.654Z,29.42
2022-08-24T18:50:24.134Z,29.35
2022-08-24T18:55:10.744Z,29.26
2022-08-24T19:01:57.023Z,29.10
2022-08-24T19:05:11.851Z,28.98
2022-08-24T19:09:10.115Z,28.85
2022-08-24T19:10:39.048Z,28.81
2022-08-24T19:12:08.892Z,28.76
2022-08-24T19:15:40.119Z,28.64
2022-08-24T19:18:56.673Z,28.51
2022-08-24T19:25:33.299Z,28.32
2022-08-24T19:28:28.172Z,28.25
2022-08-24T19:32:13.896Z,28.11
2022-08-24T19:36:22.852Z,27.98
2022-08-24T19:39:04.307Z,27.89
2022-08-24T19:40:56.614Z,27.85
2022-08-24T19:43:47.360Z,27.73
2022-08-24T19:45:20.077Z,27.68
2022-08-24T19:47:08.330Z,27.64
2022-08-24T19:52:06.435Z,27.48
2022-08-24T19:53:38.123Z,27.42
2022-08-24T20:00:48.209Z,27.25
2022-08-24T20:02:15.896Z,27.18
2022-08-24T20:09:27.075Z,26.99
2022-08-24T20:14:37.677Z,26.90
2022-08-24T20:16:07.313Z,26.89
2022-08-24T20:17:36.755Z,26.85
2022-08-24T20:21:30.164Z,26.74
2022-08-24T20:23:35.845Z,26.66
2022-08-24T20:26:36.371Z,26.62
2022-08-24T20:29:28.778Z,26.55
2022-08-24T20:34:51.134Z,26.40
2022-08-24T20:40:15.353Z,26.26
2022-08-24T20:41:47.147Z,26.22
2022-08-24T20:43:14.601Z,26.19
2022-08-24T20:47:15.410Z,26.06
2022-08-24T20:52:22.623Z,25.95
2022-08-24T20:54:23.573Z,25.88
2022-08-24T20:59:45.217Z,25.77
2022-08-24T21:01:45.252Z,25.70
2022-08-24T21:13:19.245Z,25.46
2022-08-24T21:17:11.257Z,25.36
2022-08-24T21:19:35.384Z,25.31
2022-08-24T21:21:04.781Z,25.29
2022-08-24T21:31:02.505Z,25.26
2022-08-24T21:37:44.237Z,25.28
2022-08-24T21:43:34.711Z,25.28
2022-08-24T21:48:07.027Z,25.29
2022-08-24T21:51:13.094Z,25.29
2022-08-24T21:52:51.272Z,25.29
2022-08-24T21:54:23.805Z,25.28
2022-08-24T21:56:17.490Z,25.29
2022-08-24T21:57:52.302Z,25.28
2022-08-24T22:00:29.708Z,25.25
2022-08-24T22:05:26.177Z,25.21
2022-08-24T22:07:26.633Z,25.21
2022-08-24T22:10:36.635Z,25.17
2022-08-24T22:12:38.789Z,25.16
2022-08-24T22:14:11.769Z,25.14
2022-08-24T22:18:21.655Z,25.08
2022-08-24T22:19:55.233Z,25.08
2022-08-24T22:22:24.756Z,25.03
2022-08-24T22:25:25.067Z,24.98
2022-08-24T22:30:25.999Z,24.91
2022-08-24T22:32:24.433Z,24.92
2022-08-24T22:34:42.764Z,24.88
2022-08-24T22:36:32.427Z,24.85
2022-08-24T22:39:49.538Z,24.81
2022-08-24T22:48:54.652Z,24.80
2022-08-24T22:50:23.575Z,24.78
2022-08-24T22:54:29.978Z,24.74
2022-08-24T22:57:19.954Z,24.70
2022-08-24T22:59:19.638Z,24.68
2022-08-24T23:02:08.410Z,24.65
2022-08-24T23:09:03.627Z,24.60
2022-08-24T23:14:17.321Z,24.57
2022-08-24T23:15:46.342Z,24.54
2022-08-24T23:19:12.049Z,24.53
2022-08-24T23:22:07.066Z,24.51
2022-08-24T23:25:54.132Z,24.51
2022-08-24T23:27:24.456Z,24.50
2022-08-24T23:28:55.944Z,24.50
2022-08-24T23:30:54.958Z,24.50
2022-08-24T23:34:26.236Z,24.48
2022-08-24T23:37:57.810Z,24.47
2022-08-24T23:52:30.660Z,24.35
2022-08-24T23:55:41.726Z,24.30
2022-08-24T23:57:08.900Z,24.29
